Aeroporto :
LOGIN :

Iscrizione | Disclaimer

   EN    FR    IT 

 










Sommario :    VFR   VFR Marginale   IFR   IFR Intensivo   IFR Molto Intensivo
Visibilità : 
Base nubi : 
>= 8 km
>= 3000ft
5 / 8 km
1000 / 3000 ft
1500m / 5 km
500 / 1000 ft
800 / 1500m
200 / 500 ft
< 800m
< 200 ft
Simboli :   Temporali  Nebbia  Neve Forte  Precipitazioni Forti  Vento > 20 kt
SIGMETs :   Varie  Temporali  Ghiacco  Turbolenza  Onda orograficha  Ceneri Vulcaniche







- Altitudine del aeroporto : 2031 ft


LEGT - Madrid Getafe

ULTIMO METAR :
  • 201800Z 11009KT 080V150 CAVOK 17/06 Q1016

METARs OBSOLETI :
  • 201700Z 08011KT CAVOK 18/06 Q1016
  • 201600Z 07013KT 030V100 9999 FEW045 19/06 Q1016

TAF TAF LEGT
Valido dal 20 a 18 ore il 21 a 03 ore UTC


201700Z 2018/2103 08010KT 9999 SCT045
BECMG 2021/2023 02008KT
Nessun NOTAM noto per questo aeroporto.
1 SIGMET conosciuto per la FIR Madrid (LECM) :
 
Turbolenza severa
LECM SIGMET 10 VALID 201800/202100 LEVA
LECM MADRID FIR/UIR SEV TURB FCST WI N3552 W00653 - N3737 W00456 - N3838 W00126 - N3748 W00139 - N3551 W00523 - N3552 W00653 FL230/340 STNR NC=



MetMap, La meteo Aeronautica in un colpo d'occhio ! - Copyright ORBIFLY Dicembre 2007 - Disclaimer

ORBIFLY MET'MAP TEAM :

Programmazione e sviluppo : Alexandra Zaïnal
Concezione e sviluppo : Baudouin d'Aumeries
Co-Programmazione e sviluppo : Marc-Olivier Méhu
Supporto tecnico e logistico : Manuel Goepfert
Aiuto per la traduzione : Arnaldo La Scala

Contatto : metmap@orbifly.com




FONTI E CREDITI :

   NOAA